sensor_id;sensor_type;location;lat;lon;timestamp;temperature;humidity
10660;DHT22;5378;53.206;13.316;2022-10-16T00:00:46;14.40;99.90
10660;DHT22;5378;53.206;13.316;2022-10-16T00:03:34;14.40;99.90
10660;DHT22;5378;53.206;13.316;2022-10-16T00:06:22;14.50;99.90
10660;DHT22;5378;53.206;13.316;2022-10-16T00:09:10;14.50;99.90
10660;DHT22;5378;53.206;13.316;2022-10-16T00:11:57;14.60;99.90
10660;DHT22;5378;53.206;13.316;2022-10-16T00:14:44;14.50;99.90
10660;DHT22;5378;53.206;13.316;2022-10-16T00:17:32;14.50;99.90
10660;DHT22;5378;53.206;13.316;2022-10-16T00:20:20;14.50;99.90
10660;DHT22;5378;53.206;13.316;2022-10-16T00:23:26;14.40;99.90
10660;DHT22;5378;53.206;13.316;2022-10-16T00:26:15;14.40;99.90
10660;DHT22;5378;53.206;13.316;2022-10-16T00:29:03;14.40;99.90
10660;DHT22;5378;53.206;13.316;2022-10-16T00:31:50;14.40;99.90
10660;DHT22;5378;53.206;13.316;2022-10-16T00:34:39;14.50;99.90
10660;DHT22;5378;53.206;13.316;2022-10-16T00:37:26;14.50;99.90
10660;DHT22;5378;53.206;13.316;2022-10-16T00:40:14;14.50;99.90
10660;DHT22;5378;53.206;13.316;2022-10-16T00:43:01;14.50;99.90
10660;DHT22;5378;53.206;13.316;2022-10-16T00:45:48;14.50;99.90
10660;DHT22;5378;53.206;13.316;2022-10-16T00:48:35;14.60;99.90
10660;DHT22;5378;53.206;13.316;2022-10-16T00:51:27;14.70;99.90
10660;DHT22;5378;53.206;13.316;2022-10-16T00:54:17;14.70;99.90
10660;DHT22;5378;53.206;13.316;2022-10-16T00:57:06;14.70;99.90
10660;DHT22;5378;53.206;13.316;2022-10-16T00:59:54;14.80;99.90
10660;DHT22;5378;53.206;13.316;2022-10-16T01:02:41;14.80;99.90
10660;DHT22;5378;53.206;13.316;2022-10-16T01:05:32;14.80;99.90
10660;DHT22;5378;53.206;13.316;2022-10-16T01:08:27;14.80;99.90
10660;DHT22;5378;53.206;13.316;2022-10-16T01:11:23;14.80;99.90
10660;DHT22;5378;53.206;13.316;2022-10-16T01:14:19;14.80;99.90
10660;DHT22;5378;53.206;13.316;2022-10-16T01:17:12;14.80;99.90
10660;DHT22;5378;53.206;13.316;2022-10-16T01:20:05;14.80;99.90
10660;DHT22;5378;53.206;13.316;2022-10-16T01:23:01;14.80;99.90
10660;DHT22;5378;53.206;13.316;2022-10-16T01:26:10;14.80;99.90
10660;DHT22;5378;53.206;13.316;2022-10-16T01:29:03;14.80;99.90
10660;DHT22;5378;53.206;13.316;2022-10-16T01:31:55;14.80;99.90
10660;DHT22;5378;53.206;13.316;2022-10-16T01:34:48;14.90;99.90
10660;DHT22;5378;53.206;13.316;2022-10-16T01:37:39;14.90;99.90
10660;DHT22;5378;53.206;13.316;2022-10-16T01:40:28;14.90;99.90
10660;DHT22;5378;53.206;13.316;2022-10-16T01:43:19;15.00;99.90
10660;DHT22;5378;53.206;13.316;2022-10-16T01:46:10;15.00;99.90
10660;DHT22;5378;53.206;13.316;2022-10-16T01:48:59;15.10;99.90
10660;DHT22;5378;53.206;13.316;2022-10-16T01:51:49;15.20;99.90
10660;DHT22;5378;53.206;13.316;2022-10-16T01:54:39;15.20;99.90
10660;DHT22;5378;53.206;13.316;2022-10-16T01:57:28;15.20;99.90
10660;DHT22;5378;53.206;13.316;2022-10-16T02:00:19;15.20;99.90
10660;DHT22;5378;53.206;13.316;2022-10-16T02:03:10;15.20;99.90
10660;DHT22;5378;53.206;13.316;2022-10-16T02:05:58;15.20;99.90
10660;DHT22;5378;53.206;13.316;2022-10-16T02:08:45;15.30;99.90
10660;DHT22;5378;53.206;13.316;2022-10-16T02:11:32;15.30;99.90
10660;DHT22;5378;53.206;13.316;2022-10-16T02:14:23;15.40;99.90
10660;DHT22;5378;53.206;13.316;2022-10-16T02:17:13;15.40;99.90
10660;DHT22;5378;53.206;13.316;2022-10-16T02:20:02;15.40;99.90
10660;DHT22;5378;53.206;13.316;2022-10-16T02:22:50;15.40;99.90
10660;DHT22;5378;53.206;13.316;2022-10-16T02:25:42;15.40;99.90
10660;DHT22;5378;53.206;13.316;2022-10-16T02:28:38;15.40;99.90
10660;DHT22;5378;53.206;13.316;2022-10-16T02:31:28;15.40;99.90
10660;DHT22;5378;53.206;13.316;2022-10-16T02:34:21;15.30;99.90
10660;DHT22;5378;53.206;13.316;2022-10-16T02:37:12;15.30;99.90
10660;DHT22;5378;53.206;13.316;2022-10-16T02:40:00;15.20;99.90
10660;DHT22;5378;53.206;13.316;2022-10-16T02:42:50;15.10;99.90
10660;DHT22;5378;53.206;13.316;2022-10-16T02:45:38;15.10;99.90
10660;DHT22;5378;53.206;13.316;2022-10-16T02:48:25;15.00;99.90
10660;DHT22;5378;53.206;13.316;2022-10-16T02:51:12;14.90;99.90
10660;DHT22;5378;53.206;13.316;2022-10-16T02:54:01;14.90;99.90
10660;DHT22;5378;53.206;13.316;2022-10-16T02:56:48;14.80;99.90
10660;DHT22;5378;53.206;13.316;2022-10-16T02:59:35;14.80;99.90
10660;DHT22;5378;53.206;13.316;2022-10-16T03:02:23;14.80;99.90
10660;DHT22;5378;53.206;13.316;2022-10-16T03:05:10;14.80;99.90
10660;DHT22;5378;53.206;13.316;2022-10-16T03:07:57;14.80;99.90
10660;DHT22;5378;53.206;13.316;2022-10-16T03:10:47;14.80;99.90
10660;DHT22;5378;53.206;13.316;2022-10-16T03:13:34;14.70;99.90
10660;DHT22;5378;53.206;13.316;2022-10-16T03:16:21;14.60;99.90
10660;DHT22;5378;53.206;13.316;2022-10-16T03:19:09;14.60;99.90
10660;DHT22;5378;53.206;13.316;2022-10-16T03:21:56;14.50;99.90
10660;DHT22;5378;53.206;13.316;2022-10-16T03:24:43;14.50;99.90
10660;DHT22;5378;53.206;13.316;2022-10-16T03:27:31;14.40;99.90
10660;DHT22;5378;53.206;13.316;2022-10-16T03:30:18;14.40;99.90
10660;DHT22;5378;53.206;13.316;2022-10-16T03:33:06;14.30;99.90
10660;DHT22;5378;53.206;13.316;2022-10-16T03:35:53;14.30;99.90
10660;DHT22;5378;53.206;13.316;2022-10-16T03:38:41;14.30;99.90
10660;DHT22;5378;53.206;13.316;2022-10-16T03:41:28;14.30;99.90
10660;DHT22;5378;53.206;13.316;2022-10-16T03:44:16;14.20;99.90
10660;DHT22;5378;53.206;13.316;2022-10-16T03:47:04;14.20;99.90
10660;DHT22;5378;53.206;13.316;2022-10-16T03:49:51;14.10;99.90
10660;DHT22;5378;53.206;13.316;2022-10-16T03:52:38;14.10;99.90
10660;DHT22;5378;53.206;13.316;2022-10-16T03:55:25;14.20;99.90
10660;DHT22;5378;53.206;13.316;2022-10-16T03:58:12;14.00;99.90
10660;DHT22;5378;53.206;13.316;2022-10-16T04:01:00;13.90;99.90
10660;DHT22;5378;53.206;13.316;2022-10-16T04:03:48;13.80;99.90
10660;DHT22;5378;53.206;13.316;2022-10-16T04:06:34;13.80;99.90
10660;DHT22;5378;53.206;13.316;2022-10-16T04:09:22;13.80;99.90
10660;DHT22;5378;53.206;13.316;2022-10-16T04:12:09;13.70;99.90
10660;DHT22;5378;53.206;13.316;2022-10-16T04:14:56;13.60;99.90
10660;DHT22;5378;53.206;13.316;2022-10-16T04:17:44;13.60;99.90
10660;DHT22;5378;53.206;13.316;2022-10-16T04:20:32;13.60;99.90
10660;DHT22;5378;53.206;13.316;2022-10-16T04:23:19;13.40;99.90
10660;DHT22;5378;53.206;13.316;2022-10-16T04:26:06;13.50;99.90
10660;DHT22;5378;53.206;13.316;2022-10-16T04:28:53;13.60;99.90
10660;DHT22;5378;53.206;13.316;2022-10-16T04:31:40;13.50;99.90
10660;DHT22;5378;53.206;13.316;2022-10-16T04:34:29;13.50;99.90
10660;DHT22;5378;53.206;13.316;2022-10-16T04:37:15;13.40;99.90
10660;DHT22;5378;53.206;13.316;2022-10-16T04:40:03;13.50;99.90
10660;DHT22;5378;53.206;13.316;2022-10-16T04:42:51;13.50;99.90
10660;DHT22;5378;53.206;13.316;2022-10-16T04:45:39;13.50;99.90
10660;DHT22;5378;53.206;13.316;2022-10-16T04:48:26;13.50;99.90
10660;DHT22;5378;53.206;13.316;2022-10-16T04:51:14;13.60;99.90
10660;DHT22;5378;53.206;13.316;2022-10-16T04:54:01;13.60;99.90
10660;DHT22;5378;53.206;13.316;2022-10-16T04:56:48;13.60;99.90
10660;DHT22;5378;53.206;13.316;2022-10-16T04:59:37;13.60;99.90
10660;DHT22;5378;53.206;13.316;2022-10-16T05:02:25;13.60;99.90
10660;DHT22;5378;53.206;13.316;2022-10-16T05:05:12;13.70;99.90
10660;DHT22;5378;53.206;13.316;2022-10-16T05:08:01;13.60;99.90
10660;DHT22;5378;53.206;13.316;2022-10-16T05:10:48;13.60;99.90
10660;DHT22;5378;53.206;13.316;2022-10-16T05:13:35;13.60;99.90
10660;DHT22;5378;53.206;13.316;2022-10-16T05:16:23;13.60;99.90
10660;DHT22;5378;53.206;13.316;2022-10-16T05:19:10;13.70;99.90
10660;DHT22;5378;53.206;13.316;2022-10-16T05:22:13;13.70;99.90
10660;DHT22;5378;53.206;13.316;2022-10-16T05:25:01;13.70;99.90
10660;DHT22;5378;53.206;13.316;2022-10-16T05:27:49;13.70;99.90
10660;DHT22;5378;53.206;13.316;2022-10-16T05:30:37;13.70;99.90
10660;DHT22;5378;53.206;13.316;2022-10-16T05:33:25;13.70;99.90
10660;DHT22;5378;53.206;13.316;2022-10-16T05:36:13;13.60;99.90
10660;DHT22;5378;53.206;13.316;2022-10-16T05:38:59;13.60;99.90
10660;DHT22;5378;53.206;13.316;2022-10-16T05:41:49;13.60;99.90
10660;DHT22;5378;53.206;13.316;2022-10-16T05:44:36;13.60;99.90
10660;DHT22;5378;53.206;13.316;2022-10-16T05:47:24;13.60;99.90
10660;DHT22;5378;53.206;13.316;2022-10-16T05:50:11;13.60;99.90
10660;DHT22;5378;53.206;13.316;2022-10-16T05:52:58;13.60;99.90
10660;DHT22;5378;53.206;13.316;2022-10-16T05:55:51;13.70;99.90
10660;DHT22;5378;53.206;13.316;2022-10-16T05:58:40;13.70;99.90
10660;DHT22;5378;53.206;13.316;2022-10-16T06:01:28;13.80;99.90
10660;DHT22;5378;53.206;13.316;2022-10-16T06:04:16;13.80;99.90
10660;DHT22;5378;53.206;13.316;2022-10-16T06:07:03;13.80;99.90
10660;DHT22;5378;53.206;13.316;2022-10-16T06:09:51;13.90;99.90
10660;DHT22;5378;53.206;13.316;2022-10-16T06:12:38;13.90;99.90
10660;DHT22;5378;53.206;13.316;2022-10-16T06:15:27;13.90;99.90
10660;DHT22;5378;53.206;13.316;2022-10-16T06:18:14;14.00;99.90
10660;DHT22;5378;53.206;13.316;2022-10-16T06:21:07;14.00;99.90
10660;DHT22;5378;53.206;13.316;2022-10-16T06:23:55;14.10;99.90
10660;DHT22;5378;53.206;13.316;2022-10-16T06:26:43;14.20;99.90
10660;DHT22;5378;53.206;13.316;2022-10-16T06:29:30;14.30;99.90
10660;DHT22;5378;53.206;13.316;2022-10-16T06:32:18;14.30;99.90
10660;DHT22;5378;53.206;13.316;2022-10-16T06:35:07;14.40;99.90
10660;DHT22;5378;53.206;13.316;2022-10-16T06:37:54;14.40;99.90
10660;DHT22;5378;53.206;13.316;2022-10-16T06:40:41;14.50;99.90
10660;DHT22;5378;53.206;13.316;2022-10-16T06:43:29;14.50;99.90
10660;DHT22;5378;53.206;13.316;2022-10-16T06:46:20;14.60;99.90
10660;DHT22;5378;53.206;13.316;2022-10-16T06:49:08;14.60;99.90
10660;DHT22;5378;53.206;13.316;2022-10-16T06:51:56;14.70;99.90
10660;DHT22;5378;53.206;13.316;2022-10-16T06:54:43;14.80;99.90
10660;DHT22;5378;53.206;13.316;2022-10-16T06:57:30;14.90;99.90
10660;DHT22;5378;53.206;13.316;2022-10-16T07:00:17;15.00;99.90
10660;DHT22;5378;53.206;13.316;2022-10-16T07:03:04;15.10;99.90
10660;DHT22;5378;53.206;13.316;2022-10-16T07:05:53;15.20;99.90
10660;DHT22;5378;53.206;13.316;2022-10-16T07:08:41;15.30;99.90
10660;DHT22;5378;53.206;13.316;2022-10-16T07:11:29;15.40;99.90
10660;DHT22;5378;53.206;13.316;2022-10-16T07:14:17;15.60;99.90
10660;DHT22;5378;53.206;13.316;2022-10-16T07:17:04;15.70;99.90
10660;DHT22;5378;53.206;13.316;2022-10-16T07:19:51;15.80;99.90
10660;DHT22;5378;53.206;13.316;2022-10-16T07:22:40;16.00;99.90
10660;DHT22;5378;53.206;13.316;2022-10-16T07:25:27;16.10;99.90
10660;DHT22;5378;53.206;13.316;2022-10-16T07:28:14;16.10;99.90
10660;DHT22;5378;53.206;13.316;2022-10-16T07:31:02;16.10;99.90
10660;DHT22;5378;53.206;13.316;2022-10-16T07:33:50;16.20;99.90
10660;DHT22;5378;53.206;13.316;2022-10-16T07:36:37;16.30;99.90
10660;DHT22;5378;53.206;13.316;2022-10-16T07:39:26;16.30;99.90
10660;DHT22;5378;53.206;13.316;2022-10-16T07:42:13;16.40;99.90
10660;DHT22;5378;53.206;13.316;2022-10-16T07:45:00;16.40;99.90
10660;DHT22;5378;53.206;13.316;2022-10-16T07:47:48;16.50;99.90
10660;DHT22;5378;53.206;13.316;2022-10-16T07:50:35;16.60;99.90
10660;DHT22;5378;53.206;13.316;2022-10-16T07:53:22;16.60;99.90
10660;DHT22;5378;53.206;13.316;2022-10-16T07:56:11;16.60;99.90
10660;DHT22;5378;53.206;13.316;2022-10-16T07:58:58;16.70;99.90
10660;DHT22;5378;53.206;13.316;2022-10-16T08:01:45;16.70;99.90
10660;DHT22;5378;53.206;13.316;2022-10-16T08:04:33;16.80;99.90
10660;DHT22;5378;53.206;13.316;2022-10-16T08:07:20;16.90;99.90
10660;DHT22;5378;53.206;13.316;2022-10-16T08:10:13;17.10;99.90
10660;DHT22;5378;53.206;13.316;2022-10-16T08:13:03;17.20;99.90
10660;DHT22;5378;53.206;13.316;2022-10-16T08:15:54;17.40;99.90
10660;DHT22;5378;53.206;13.316;2022-10-16T08:18:41;17.50;99.90
10660;DHT22;5378;53.206;13.316;2022-10-16T08:21:28;17.70;99.90
10660;DHT22;5378;53.206;13.316;2022-10-16T08:24:15;17.90;99.90
10660;DHT22;5378;53.206;13.316;2022-10-16T08:27:03;18.10;99.90
10660;DHT22;5378;53.206;13.316;2022-10-16T08:29:51;18.40;99.90
10660;DHT22;5378;53.206;13.316;2022-10-16T08:32:38;18.50;99.90
10660;DHT22;5378;53.206;13.316;2022-10-16T08:35:25;18.50;99.90
10660;DHT22;5378;53.206;13.316;2022-10-16T08:38:12;18.40;99.90
10660;DHT22;5378;53.206;13.316;2022-10-16T08:41:18;18.40;99.90
10660;DHT22;5378;53.206;13.316;2022-10-16T08:44:23;18.30;99.90
10660;DHT22;5378;53.206;13.316;2022-10-16T08:47:18;18.10;99.90
10660;DHT22;5378;53.206;13.316;2022-10-16T08:50:10;18.00;99.90
10660;DHT22;5378;53.206;13.316;2022-10-16T08:52:58;17.80;99.90
10660;DHT22;5378;53.206;13.316;2022-10-16T08:55:49;17.80;99.90
10660;DHT22;5378;53.206;13.316;2022-10-16T08:58:37;17.70;99.90
10660;DHT22;5378;53.206;13.316;2022-10-16T09:01:32;17.70;99.90
10660;DHT22;5378;53.206;13.316;2022-10-16T09:04:47;17.60;99.90
10660;DHT22;5378;53.206;13.316;2022-10-16T09:07:43;17.40;99.90
10660;DHT22;5378;53.206;13.316;2022-10-16T09:10:40;17.30;99.90
10660;DHT22;5378;53.206;13.316;2022-10-16T09:13:31;17.30;99.90
10660;DHT22;5378;53.206;13.316;2022-10-16T09:16:24;17.30;99.90
10660;DHT22;5378;53.206;13.316;2022-10-16T09:19:19;17.30;99.90
10660;DHT22;5378;53.206;13.316;2022-10-16T09:22:14;17.30;99.90
10660;DHT22;5378;53.206;13.316;2022-10-16T09:25:11;17.40;99.90
10660;DHT22;5378;53.206;13.316;2022-10-16T09:27:59;17.40;99.90
10660;DHT22;5378;53.206;13.316;2022-10-16T09:30:47;17.40;99.90
10660;DHT22;5378;53.206;13.316;2022-10-16T09:33:37;17.30;99.90
10660;DHT22;5378;53.206;13.316;2022-10-16T09:36:28;17.20;99.90
10660;DHT22;5378;53.206;13.316;2022-10-16T09:39:17;17.10;99.90
10660;DHT22;5378;53.206;13.316;2022-10-16T09:42:04;17.10;99.90
10660;DHT22;5378;53.206;13.316;2022-10-16T09:44:52;17.20;99.90
10660;DHT22;5378;53.206;13.316;2022-10-16T09:47:42;17.10;99.90
10660;DHT22;5378;53.206;13.316;2022-10-16T09:50:29;17.10;99.90
10660;DHT22;5378;53.206;13.316;2022-10-16T09:53:17;17.10;99.90
10660;DHT22;5378;53.206;13.316;2022-10-16T09:56:12;17.10;99.90
10660;DHT22;5378;53.206;13.316;2022-10-16T09:59:02;17.20;99.90
10660;DHT22;5378;53.206;13.316;2022-10-16T10:01:51;17.30;99.90
10660;DHT22;5378;53.206;13.316;2022-10-16T10:04:41;17.50;99.90
10660;DHT22;5378;53.206;13.316;2022-10-16T10:07:31;17.50;99.90
10660;DHT22;5378;53.206;13.316;2022-10-16T10:10:21;17.50;99.90
10660;DHT22;5378;53.206;13.316;2022-10-16T10:13:19;17.60;99.90
10660;DHT22;5378;53.206;13.316;2022-10-16T10:16:06;17.60;99.90
10660;DHT22;5378;53.206;13.316;2022-10-16T10:18:58;17.50;99.90
10660;DHT22;5378;53.206;13.316;2022-10-16T10:21:45;17.40;99.90
10660;DHT22;5378;53.206;13.316;2022-10-16T10:24:33;17.30;99.90
10660;DHT22;5378;53.206;13.316;2022-10-16T10:27:21;17.30;99.90
10660;DHT22;5378;53.206;13.316;2022-10-16T10:30:16;17.30;99.90
10660;DHT22;5378;53.206;13.316;2022-10-16T10:33:18;17.30;99.90
10660;DHT22;5378;53.206;13.316;2022-10-16T10:36:14;17.30;99.90
10660;DHT22;5378;53.206;13.316;2022-10-16T10:39:07;17.40;99.90
10660;DHT22;5378;53.206;13.316;2022-10-16T10:42:04;17.40;99.90
10660;DHT22;5378;53.206;13.316;2022-10-16T10:45:03;17.40;99.90
10660;DHT22;5378;53.206;13.316;2022-10-16T10:48:13;17.50;99.90
10660;DHT22;5378;53.206;13.316;2022-10-16T10:51:07;17.50;99.90
10660;DHT22;5378;53.206;13.316;2022-10-16T10:54:04;17.50;99.90
10660;DHT22;5378;53.206;13.316;2022-10-16T10:56:59;17.50;99.90
10660;DHT22;5378;53.206;13.316;2022-10-16T11:00:00;17.50;99.90
10660;DHT22;5378;53.206;13.316;2022-10-16T11:02:55;17.40;99.90
10660;DHT22;5378;53.206;13.316;2022-10-16T11:05:48;17.40;99.90
10660;DHT22;5378;53.206;13.316;2022-10-16T11:08:40;17.30;99.90
10660;DHT22;5378;53.206;13.316;2022-10-16T11:11:33;17.30;99.90
10660;DHT22;5378;53.206;13.316;2022-10-16T11:14:24;17.30;99.90
10660;DHT22;5378;53.206;13.316;2022-10-16T11:17:15;17.30;99.90
10660;DHT22;5378;53.206;13.316;2022-10-16T11:20:13;17.30;99.90
10660;DHT22;5378;53.206;13.316;2022-10-16T11:23:08;17.30;99.90
10660;DHT22;5378;53.206;13.316;2022-10-16T11:26:02;17.30;99.90
10660;DHT22;5378;53.206;13.316;2022-10-16T11:28:53;17.30;99.90
10660;DHT22;5378;53.206;13.316;2022-10-16T11:31:46;17.30;99.90
10660;DHT22;5378;53.206;13.316;2022-10-16T11:34:39;17.30;99.90
10660;DHT22;5378;53.206;13.316;2022-10-16T11:37:31;17.40;99.90
10660;DHT22;5378;53.206;13.316;2022-10-16T11:40:25;17.60;99.90
10660;DHT22;5378;53.206;13.316;2022-10-16T11:43:19;17.70;99.90
10660;DHT22;5378;53.206;13.316;2022-10-16T11:46:11;17.70;99.90
10660;DHT22;5378;53.206;13.316;2022-10-16T11:49:03;17.80;99.90
10660;DHT22;5378;53.206;13.316;2022-10-16T11:51:59;17.90;99.90
10660;DHT22;5378;53.206;13.316;2022-10-16T11:54:51;17.90;99.90
10660;DHT22;5378;53.206;13.316;2022-10-16T11:57:43;17.90;99.90
10660;DHT22;5378;53.206;13.316;2022-10-16T12:00:38;17.80;99.90
10660;DHT22;5378;53.206;13.316;2022-10-16T12:03:29;17.80;99.90
10660;DHT22;5378;53.206;13.316;2022-10-16T12:06:30;17.90;99.90
10660;DHT22;5378;53.206;13.316;2022-10-16T12:09:24;18.00;99.90
10660;DHT22;5378;53.206;13.316;2022-10-16T12:12:26;18.10;99.90
10660;DHT22;5378;53.206;13.316;2022-10-16T12:15:22;18.20;99.90
10660;DHT22;5378;53.206;13.316;2022-10-16T12:18:21;18.30;99.90
10660;DHT22;5378;53.206;13.316;2022-10-16T12:21:10;18.40;99.90
10660;DHT22;5378;53.206;13.316;2022-10-16T12:24:03;18.40;99.90
10660;DHT22;5378;53.206;13.316;2022-10-16T12:26:52;18.50;99.90
10660;DHT22;5378;53.206;13.316;2022-10-16T12:29:40;18.50;99.90
10660;DHT22;5378;53.206;13.316;2022-10-16T12:32:32;18.50;99.90
10660;DHT22;5378;53.206;13.316;2022-10-16T12:35:32;18.50;99.90
10660;DHT22;5378;53.206;13.316;2022-10-16T12:38:21;18.50;99.90
10660;DHT22;5378;53.206;13.316;2022-10-16T12:41:11;18.50;99.90
10660;DHT22;5378;53.206;13.316;2022-10-16T12:44:01;18.50;99.90
10660;DHT22;5378;53.206;13.316;2022-10-16T12:46:48;18.30;99.90
10660;DHT22;5378;53.206;13.316;2022-10-16T12:49:38;18.20;99.90
10660;DHT22;5378;53.206;13.316;2022-10-16T12:52:36;18.30;99.90
10660;DHT22;5378;53.206;13.316;2022-10-16T12:55:24;18.40;99.90
10660;DHT22;5378;53.206;13.316;2022-10-16T12:58:24;18.40;99.90
10660;DHT22;5378;53.206;13.316;2022-10-16T13:01:32;18.20;99.90
10660;DHT22;5378;53.206;13.316;2022-10-16T13:04:35;18.10;99.90
10660;DHT22;5378;53.206;13.316;2022-10-16T13:07:47;18.00;99.90
10660;DHT22;5378;53.206;13.316;2022-10-16T13:10:40;18.00;99.90
10660;DHT22;5378;53.206;13.316;2022-10-16T13:13:54;18.00;99.90
10660;DHT22;5378;53.206;13.316;2022-10-16T13:16:51;17.90;99.90
10660;DHT22;5378;53.206;13.316;2022-10-16T13:19:44;17.90;99.90
10660;DHT22;5378;53.206;13.316;2022-10-16T13:22:42;18.00;99.90
10660;DHT22;5378;53.206;13.316;2022-10-16T13:25:41;18.10;99.90
10660;DHT22;5378;53.206;13.316;2022-10-16T13:28:32;18.30;99.90
10660;DHT22;5378;53.206;13.316;2022-10-16T13:31:21;18.30;99.90
10660;DHT22;5378;53.206;13.316;2022-10-16T13:34:13;18.20;99.90
10660;DHT22;5378;53.206;13.316;2022-10-16T13:37:01;18.00;99.90
10660;DHT22;5378;53.206;13.316;2022-10-16T13:39:50;18.00;99.90
10660;DHT22;5378;53.206;13.316;2022-10-16T13:42:37;18.00;99.90
10660;DHT22;5378;53.206;13.316;2022-10-16T13:45:25;18.00;99.90
10660;DHT22;5378;53.206;13.316;2022-10-16T13:48:12;18.00;99.90
10660;DHT22;5378;53.206;13.316;2022-10-16T13:51:01;18.00;99.90
10660;DHT22;5378;53.206;13.316;2022-10-16T13:53:48;18.10;99.90
10660;DHT22;5378;53.206;13.316;2022-10-16T13:56:39;18.00;99.90
10660;DHT22;5378;53.206;13.316;2022-10-16T13:59:32;18.00;99.90
10660;DHT22;5378;53.206;13.316;2022-10-16T14:02:24;17.90;99.90
10660;DHT22;5378;53.206;13.316;2022-10-16T14:05:14;17.80;99.90
10660;DHT22;5378;53.206;13.316;2022-10-16T14:08:01;17.80;99.90
10660;DHT22;5378;53.206;13.316;2022-10-16T14:10:49;17.80;99.90
10660;DHT22;5378;53.206;13.316;2022-10-16T14:13:40;17.70;99.90
10660;DHT22;5378;53.206;13.316;2022-10-16T14:16:30;17.60;99.90
10660;DHT22;5378;53.206;13.316;2022-10-16T14:19:21;17.50;99.90
10660;DHT22;5378;53.206;13.316;2022-10-16T14:22:24;17.30;99.90
10660;DHT22;5378;53.206;13.316;2022-10-16T14:25:23;17.30;99.90
10660;DHT22;5378;53.206;13.316;2022-10-16T14:28:16;17.20;99.90
10660;DHT22;5378;53.206;13.316;2022-10-16T14:31:25;17.30;99.90
10660;DHT22;5378;53.206;13.316;2022-10-16T14:34:26;17.20;99.90
10660;DHT22;5378;53.206;13.316;2022-10-16T14:37:22;17.20;99.90
10660;DHT22;5378;53.206;13.316;2022-10-16T14:40:14;17.30;99.90
10660;DHT22;5378;53.206;13.316;2022-10-16T14:43:03;17.30;99.90
10660;DHT22;5378;53.206;13.316;2022-10-16T14:45:52;17.20;99.90
10660;DHT22;5378;53.206;13.316;2022-10-16T14:48:42;17.20;99.90
10660;DHT22;5378;53.206;13.316;2022-10-16T14:51:29;17.20;99.90
10660;DHT22;5378;53.206;13.316;2022-10-16T14:54:18;17.20;99.90
10660;DHT22;5378;53.206;13.316;2022-10-16T14:57:06;17.10;99.90
10660;DHT22;5378;53.206;13.316;2022-10-16T15:00:03;17.10;99.90
10660;DHT22;5378;53.206;13.316;2022-10-16T15:02:51;17.10;99.90
10660;DHT22;5378;53.206;13.316;2022-10-16T15:05:39;17.10;99.90
10660;DHT22;5378;53.206;13.316;2022-10-16T15:08:26;17.00;99.90
10660;DHT22;5378;53.206;13.316;2022-10-16T15:11:15;17.00;99.90
10660;DHT22;5378;53.206;13.316;2022-10-16T15:14:04;17.00;99.90
10660;DHT22;5378;53.206;13.316;2022-10-16T15:16:51;16.90;99.90
10660;DHT22;5378;53.206;13.316;2022-10-16T15:19:38;16.80;99.90
10660;DHT22;5378;53.206;13.316;2022-10-16T15:22:27;16.80;99.90
10660;DHT22;5378;53.206;13.316;2022-10-16T15:25:34;16.80;99.90
10660;DHT22;5378;53.206;13.316;2022-10-16T15:28:22;16.70;99.90
10660;DHT22;5378;53.206;13.316;2022-10-16T15:31:10;16.70;99.90
10660;DHT22;5378;53.206;13.316;2022-10-16T15:33:58;16.70;99.90
10660;DHT22;5378;53.206;13.316;2022-10-16T15:36:50;16.70;99.90
10660;DHT22;5378;53.206;13.316;2022-10-16T15:39:38;16.60;99.90
10660;DHT22;5378;53.206;13.316;2022-10-16T15:42:26;16.50;99.90
10660;DHT22;5378;53.206;13.316;2022-10-16T15:45:13;16.50;99.90
10660;DHT22;5378;53.206;13.316;2022-10-16T15:48:00;16.40;99.90
10660;DHT22;5378;53.206;13.316;2022-10-16T15:50:47;16.30;99.90
10660;DHT22;5378;53.206;13.316;2022-10-16T15:53:35;16.20;99.90
10660;DHT22;5378;53.206;13.316;2022-10-16T15:56:24;16.10;99.90
10660;DHT22;5378;53.206;13.316;2022-10-16T15:59:11;16.00;99.90
10660;DHT22;5378;53.206;13.316;2022-10-16T16:01:58;16.00;99.90
10660;DHT22;5378;53.206;13.316;2022-10-16T16:04:45;15.90;99.90
10660;DHT22;5378;53.206;13.316;2022-10-16T16:07:33;15.80;99.90
10660;DHT22;5378;53.206;13.316;2022-10-16T16:10:21;15.80;99.90
10660;DHT22;5378;53.206;13.316;2022-10-16T16:13:09;15.70;99.90
10660;DHT22;5378;53.206;13.316;2022-10-16T16:15:56;15.60;99.90
10660;DHT22;5378;53.206;13.316;2022-10-16T16:18:44;15.60;99.90
10660;DHT22;5378;53.206;13.316;2022-10-16T16:21:31;15.50;99.90
10660;DHT22;5378;53.206;13.316;2022-10-16T16:24:18;15.30;99.90
10660;DHT22;5378;53.206;13.316;2022-10-16T16:27:05;15.20;99.90
10660;DHT22;5378;53.206;13.316;2022-10-16T16:29:54;15.10;99.90
10660;DHT22;5378;53.206;13.316;2022-10-16T16:32:41;15.00;99.90
10660;DHT22;5378;53.206;13.316;2022-10-16T16:35:29;15.00;99.90
10660;DHT22;5378;53.206;13.316;2022-10-16T16:38:16;14.90;99.90
10660;DHT22;5378;53.206;13.316;2022-10-16T16:41:11;14.80;99.90
10660;DHT22;5378;53.206;13.316;2022-10-16T16:44:03;14.70;99.90
10660;DHT22;5378;53.206;13.316;2022-10-16T16:46:51;14.50;99.90
10660;DHT22;5378;53.206;13.316;2022-10-16T16:49:38;14.40;99.90
10660;DHT22;5378;53.206;13.316;2022-10-16T16:52:28;14.40;99.90
10660;DHT22;5378;53.206;13.316;2022-10-16T16:55:16;14.30;99.90
10660;DHT22;5378;53.206;13.316;2022-10-16T16:58:03;14.20;99.90
10660;DHT22;5378;53.206;13.316;2022-10-16T17:00:50;14.10;99.90
10660;DHT22;5378;53.206;13.316;2022-10-16T17:03:43;14.10;99.90
10660;DHT22;5378;53.206;13.316;2022-10-16T17:06:31;14.00;99.90
10660;DHT22;5378;53.206;13.316;2022-10-16T17:09:18;14.00;99.90
10660;DHT22;5378;53.206;13.316;2022-10-16T17:12:05;13.90;99.90
10660;DHT22;5378;53.206;13.316;2022-10-16T17:14:52;13.80;99.90
10660;DHT22;5378;53.206;13.316;2022-10-16T17:17:40;13.70;99.90
10660;DHT22;5378;53.206;13.316;2022-10-16T17:20:28;13.70;99.90
10660;DHT22;5378;53.206;13.316;2022-10-16T17:23:17;13.60;99.90
10660;DHT22;5378;53.206;13.316;2022-10-16T17:26:05;13.50;99.90
10660;DHT22;5378;53.206;13.316;2022-10-16T17:28:53;13.40;99.90
10660;DHT22;5378;53.206;13.316;2022-10-16T17:31:41;13.30;99.90
10660;DHT22;5378;53.206;13.316;2022-10-16T17:34:28;13.30;99.90
10660;DHT22;5378;53.206;13.316;2022-10-16T17:37:17;13.30;99.90
10660;DHT22;5378;53.206;13.316;2022-10-16T17:40:04;13.30;99.90
10660;DHT22;5378;53.206;13.316;2022-10-16T17:42:52;13.30;99.90
10660;DHT22;5378;53.206;13.316;2022-10-16T17:45:39;13.20;99.90
10660;DHT22;5378;53.206;13.316;2022-10-16T17:48:26;13.20;99.90
10660;DHT22;5378;53.206;13.316;2022-10-16T17:51:16;13.10;99.90
10660;DHT22;5378;53.206;13.316;2022-10-16T17:54:05;13.00;99.90